Time;durP1;ratioP1;P1;durP2;ratioP2;P2;SDS_P1;SDS_P2;PMS_P1;PMS_P2;Temp;Humidity;BMP_temperature;BMP_pressure;BME280_temperature;BME280_humidity;BME280_pressure;Samples;Min_cycle;Max_cycle;Signal;HPM_P1;HPM_P2
2022/09/02 00:05:05;;;;;;;0.25;0.10;;;17.10;99.20;;;;;;20964982;28;20142;-80
2022/09/02 00:15:07;;;;;;;0.70;0.32;;;17.00;99.40;;;;;;20986317;28;20063;-80
2022/09/02 00:25:08;;;;;;;0.57;0.20;;;16.90;99.30;;;;;;20970114;28;20040;-81
2022/09/02 00:35:10;;;;;;;0.45;0.30;;;16.70;99.40;;;;;;20966290;28;20036;-81
2022/09/02 00:45:11;;;;;;;0.32;0.10;;;16.60;99.00;;;;;;20978870;28;20794;-81
2022/09/02 00:55:17;;;;;;;0.30;0.20;;;16.60;99.40;;;;;;20976135;28;20037;-80
2022/09/02 01:05:20;;;;;;;0.80;0.38;;;16.60;99.30;;;;;;20970904;28;20032;-80
2022/09/02 01:15:21;;;;;;;1.70;0.40;;;16.40;99.80;;;;;;20974523;28;20040;-81
2022/09/02 01:25:26;;;;;;;1.40;0.73;;;16.30;99.90;;;;;;20977376;28;20033;-80
2022/09/02 01:35:27;;;;;;;0.43;0.30;;;16.20;99.90;;;;;;20969969;28;20074;-80
2022/09/02 01:45:29;;;;;;;0.57;0.20;;;16.00;99.90;;;;;;20969181;28;20102;-80
2022/09/02 01:55:31;;;;;;;0.90;0.10;;;16.10;99.90;;;;;;20960628;28;20056;-80
2022/09/02 02:05:32;;;;;;;0.68;0.50;;;15.90;99.90;;;;;;20966221;28;20033;-81
2022/09/02 02:15:37;;;;;;;0.75;0.20;;;15.80;99.90;;;;;;20956420;28;20040;-80
2022/09/02 02:25:38;;;;;;;1.33;1.05;;;15.70;99.90;;;;;;20950773;28;20131;-81
2022/09/02 02:35:40;;;;;;;0.50;0.30;;;15.80;99.90;;;;;;20940642;28;20443;-81
2022/09/02 02:45:41;;;;;;;0.50;0.20;;;15.70;99.90;;;;;;20958368;28;20051;-81
2022/09/02 02:55:43;;;;;;;0.80;0.50;;;15.60;99.90;;;;;;20967945;28;20551;-81
2022/09/02 03:05:46;;;;;;;0.65;0.30;;;15.60;99.90;;;;;;20974215;28;20044;-81
2022/09/02 03:15:48;;;;;;;0.60;0.20;;;15.50;99.90;;;;;;20982426;28;20040;-83
2022/09/02 03:25:49;;;;;;;0.65;0.20;;;15.50;99.90;;;;;;20971387;28;20403;-83
2022/09/02 03:35:50;;;;;;;0.45;0.15;;;15.40;99.90;;;;;;20989628;28;20044;-81
2022/09/02 03:45:51;;;;;;;0.77;0.32;;;15.30;99.90;;;;;;20976194;28;20043;-80
2022/09/02 03:55:52;;;;;;;0.65;0.20;;;15.30;99.90;;;;;;20956143;28;20040;-83
2022/09/02 04:05:53;;;;;;;0.63;0.28;;;15.20;99.90;;;;;;20957463;28;20484;-83
2022/09/02 04:15:54;;;;;;;0.65;0.22;;;15.00;99.90;;;;;;20961015;28;20037;-83
2022/09/02 04:25:55;;;;;;;0.68;0.30;;;15.00;99.90;;;;;;20954657;28;20035;-83
2022/09/02 04:35:56;;;;;;;0.60;0.20;;;15.00;99.90;;;;;;20935378;28;20037;-82
2022/09/02 04:45:57;;;;;;;0.55;0.20;;;15.00;99.90;;;;;;20843742;28;20033;-82
2022/09/02 04:55:59;;;;;;;0.40;0.10;;;14.90;99.90;;;;;;20870865;28;20037;-82
2022/09/02 05:06:06;;;;;;;0.32;0.20;;;14.70;99.90;;;;;;20838113;28;20504;-83
2022/09/02 05:16:07;;;;;;;0.63;0.30;;;14.60;99.90;;;;;;20835518;28;20090;-83
2022/09/02 05:26:10;;;;;;;1.38;0.32;;;14.70;99.90;;;;;;20846163;28;20064;-83
2022/09/02 05:36:14;;;;;;;0.20;0.13;;;14.70;99.90;;;;;;20885205;28;20069;-83
2022/09/02 05:46:17;;;;;;;0.40;0.20;;;14.90;99.90;;;;;;20952317;28;20780;-82
2022/09/02 05:56:20;;;;;;;0.60;0.30;;;14.90;99.90;;;;;;20965234;28;20067;-83
2022/09/02 06:06:22;;;;;;;0.50;0.32;;;14.90;99.90;;;;;;20967245;28;20031;-82
2022/09/02 06:16:23;;;;;;;0.73;0.28;;;15.00;99.90;;;;;;20963058;28;20037;-80
2022/09/02 06:26:25;;;;;;;0.75;0.30;;;15.10;99.90;;;;;;20972093;28;20040;-82
2022/09/02 06:36:28;;;;;;;0.70;0.20;;;15.40;99.90;;;;;;20991366;28;20052;-82
2022/09/02 06:46:34;;;;;;;0.50;0.10;;;15.80;99.90;;;;;;20976476;28;20491;-79
2022/09/02 06:56:35;;;;;;;1.75;0.93;;;16.10;99.90;;;;;;20977090;28;20097;-80
2022/09/02 07:06:38;;;;;;;0.50;0.20;;;16.50;99.90;;;;;;20982431;28;20427;-81
2022/09/02 07:16:48;;;;;;;0.93;0.30;;;16.70;99.90;;;;;;20993978;28;20105;-80
2022/09/02 07:26:49;;;;;;;1.88;0.50;;;16.80;99.90;;;;;;20976878;28;20078;-80
2022/09/02 07:36:51;;;;;;;0.82;0.40;;;17.00;99.90;;;;;;20971711;28;20545;-81
2022/09/02 07:46:52;;;;;;;1.88;0.60;;;17.40;99.90;;;;;;20933574;28;20424;-80
2022/09/02 07:56:54;;;;;;;2.20;0.60;;;17.70;99.90;;;;;;20948092;28;20033;-80
2022/09/02 08:06:55;;;;;;;1.27;0.30;;;18.10;99.90;;;;;;20961416;28;20033;-80
2022/09/02 08:16:57;;;;;;;1.55;0.77;;;18.70;99.90;;;;;;20971808;28;20032;-80
2022/09/02 08:26:59;;;;;;;3.08;0.30;;;19.10;99.90;;;;;;20967667;28;20036;-79
2022/09/02 08:37:00;;;;;;;0.68;0.30;;;19.50;99.60;;;;;;20922440;28;20494;-79
2022/09/02 08:47:03;;;;;;;1.00;0.38;;;19.70;99.30;;;;;;20973651;28;20136;-81
2022/09/02 08:57:04;;;;;;;1.42;0.50;;;19.90;99.20;;;;;;20959584;28;20079;-81
2022/09/02 09:07:16;;;;;;;0.60;0.30;;;20.20;98.80;;;;;;20989270;28;20028;-80
2022/09/02 09:17:37;;;;;;;1.15;0.43;;;20.50;98.60;;;;;;20979659;28;20880;-80
2022/09/02 09:27:38;;;;;;;1.77;0.82;;;20.80;98.50;;;;;;21010959;28;20047;-81
2022/09/02 09:37:40;;;;;;;1.02;0.52;;;21.20;98.00;;;;;;20953383;28;20400;-79
2022/09/02 09:47:41;;;;;;;1.48;0.40;;;21.40;98.70;;;;;;20977841;28;20028;-79
2022/09/02 09:57:45;;;;;;;0.90;0.50;;;21.90;97.60;;;;;;20980692;28;20048;-79
2022/09/02 10:07:54;;;;;;;1.42;0.70;;;22.20;97.80;;;;;;20982309;28;20036;-79
2022/09/02 10:18:24;;;;;;;2.30;0.47;;;22.70;97.20;;;;;;20977546;28;20047;-79
2022/09/02 10:28:40;;;;;;;1.10;0.50;;;23.00;97.20;;;;;;20993797;28;20978;-79
2022/09/02 10:38:49;;;;;;;1.70;0.40;;;23.50;96.40;;;;;;20998826;28;20044;-80
2022/09/02 10:49:12;;;;;;;1.23;0.63;;;24.00;95.90;;;;;;21004722;28;20074;-80
2022/09/02 10:59:37;;;;;;;0.95;0.60;;;24.40;95.40;;;;;;20979779;28;20971;-85
2022/09/02 11:09:40;;;;;;;0.57;0.30;;;24.70;95.00;;;;;;20989607;28;20525;-79
2022/09/02 11:20:20;;;;;;;0.60;0.30;;;25.00;93.50;;;;;;20977412;28;20032;-79
2022/09/02 11:30:26;;;;;;;0.50;0.38;;;25.40;93.80;;;;;;21002235;28;20848;-79
2022/09/02 11:40:48;;;;;;;1.95;0.60;;;25.70;92.70;;;;;;20969871;28;20060;-79
2022/09/02 11:51:01;;;;;;;1.33;0.50;;;26.20;93.30;;;;;;20975650;28;20082;-79
2022/09/02 12:01:18;;;;;;;0.75;0.32;;;26.90;92.10;;;;;;20993790;28;20044;-79
2022/09/02 12:11:38;;;;;;;9.60;1.55;;;27.80;90.70;;;;;;20989722;28;20589;-79
2022/09/02 12:22:16;;;;;;;2.33;0.57;;;28.10;87.10;;;;;;21000982;28;20049;-79
2022/09/02 12:32:46;;;;;;;0.95;0.30;;;28.40;86.10;;;;;;21005058;28;20518;-79
2022/09/02 12:42:50;;;;;;;0.45;0.30;;;28.70;85.20;;;;;;21000490;28;20052;-79
2022/09/02 12:53:30;;;;;;;1.52;0.40;;;29.00;84.80;;;;;;20647275;28;20220;-38
2022/09/02 13:03:43;;;;;;;1.98;0.50;;;29.00;83.70;;;;;;20622805;28;20696;-38
2022/09/02 13:14:10;;;;;;;1.10;0.65;;;27.40;85.40;;;;;;20624497;28;20046;-38
2022/09/02 13:24:28;;;;;;;1.40;0.50;;;28.80;84.70;;;;;;20632884;28;21305;-38
2022/09/02 13:34:30;;;;;;;1.90;0.50;;;29.90;80.70;;;;;;20660042;28;21362;-38
2022/09/02 13:44:31;;;;;;;1.48;0.50;;;30.00;77.00;;;;;;20734442;28;20053;-38
2022/09/02 13:54:36;;;;;;;2.00;0.60;;;29.80;79.40;;;;;;20739765;28;20038;-38
2022/09/02 14:04:38;;;;;;;0.82;0.40;;;29.60;80.60;;;;;;20653936;28;20042;-38
2022/09/02 14:14:40;;;;;;;1.20;0.43;;;28.80;82.80;;;;;;20674725;28;20042;-38
2022/09/02 14:24:41;;;;;;;1.35;0.70;;;28.70;79.00;;;;;;20688938;28;20060;-38
2022/09/02 14:34:44;;;;;;;1.27;0.50;;;28.40;79.10;;;;;;20673361;28;20092;-38
2022/09/02 14:44:48;;;;;;;1.08;0.50;;;27.80;79.20;;;;;;20660287;28;20054;-38
2022/09/02 14:54:51;;;;;;;1.27;0.60;;;27.90;79.60;;;;;;20660063;28;20038;-38
2022/09/02 15:04:54;;;;;;;1.75;0.70;;;27.50;78.90;;;;;;20666635;28;20041;-38
2022/09/02 15:14:55;;;;;;;0.93;0.57;;;27.30;78.30;;;;;;20675052;28;20565;-38
2022/09/02 15:24:57;;;;;;;1.48;0.52;;;26.90;78.80;;;;;;20675130;28;20037;-38
2022/09/02 15:34:57;;;;;;;1.45;0.82;;;26.40;79.30;;;;;;20666341;28;20034;-37
2022/09/02 15:45:01;;;;;;;1.10;0.60;;;26.20;78.80;;;;;;20663578;28;20049;-38
2022/09/02 15:55:03;;;;;;;0.80;0.45;;;26.10;79.40;;;;;;20661924;28;20042;-38
2022/09/02 16:05:04;;;;;;;1.25;0.68;;;25.90;81.00;;;;;;20648495;28;20038;-38
2022/09/02 16:15:06;;;;;;;1.75;0.60;;;25.80;80.90;;;;;;20655357;28;20548;-38
2022/09/02 16:25:07;;;;;;;2.08;0.52;;;25.60;81.40;;;;;;20665184;28;20460;-38
2022/09/02 16:35:08;;;;;;;1.70;1.02;;;25.40;81.00;;;;;;20656487;28;20089;-38
2022/09/02 16:45:09;;;;;;;2.95;0.57;;;25.20;82.50;;;;;;20646100;28;20038;-38
2022/09/02 16:55:16;;;;;;;2.50;1.65;;;25.10;85.60;;;;;;20643556;28;20429;-38
2022/09/02 17:05:17;;;;;;;2.93;1.37;;;25.00;84.40;;;;;;20645641;28;20611;-38
2022/09/02 17:15:19;;;;;;;1.38;0.70;;;24.90;84.20;;;;;;20640977;28;20457;-38
2022/09/02 17:25:19;;;;;;;2.03;1.10;;;24.80;84.50;;;;;;20642037;28;20046;-38
2022/09/02 17:35:21;;;;;;;1.60;0.70;;;24.60;85.30;;;;;;20650034;28;20045;-38
2022/09/02 17:45:22;;;;;;;1.10;0.50;;;24.40;86.10;;;;;;20663810;28;20436;-38
2022/09/02 17:55:23;;;;;;;1.13;0.60;;;24.30;84.80;;;;;;20665968;28;20120;-37
2022/09/02 18:05:39;;;;;;;1.15;0.50;;;24.20;85.00;;;;;;20677993;28;20232;-37
2022/09/02 18:16:12;;;;;;;2.55;0.63;;;23.90;87.40;;;;;;20671565;28;20038;-37
2022/09/02 18:26:17;;;;;;;1.10;0.30;;;23.60;88.50;;;;;;20650675;28;21431;-38
2022/09/02 18:36:44;;;;;;;1.00;0.60;;;23.30;90.20;;;;;;20677537;28;20141;-37
2022/09/02 18:46:55;;;;;;;3.28;0.82;;;22.90;89.90;;;;;;20665152;28;20054;-37
2022/09/02 18:57:04;;;;;;;1.65;0.70;;;22.70;90.20;;;;;;20669356;28;20044;-37
2022/09/02 19:17:25;;;;;;;2.38;0.98;;;22.30;90.80;;;;;;20654789;28;20271;-40
2022/09/02 19:27:32;;;;;;;2.38;0.70;;;22.00;90.60;;;;;;20663555;28;20046;-40
2022/09/02 19:37:34;;;;;;;1.63;0.60;;;21.90;89.40;;;;;;20667056;28;20479;-39
2022/09/02 19:47:35;;;;;;;1.00;0.50;;;21.70;90.10;;;;;;20668578;28;20482;-37
2022/09/02 19:57:36;;;;;;;3.35;1.23;;;21.50;89.80;;;;;;20658546;28;20042;-37
2022/09/02 20:07:37;;;;;;;2.78;0.50;;;21.40;90.30;;;;;;20662885;28;20046;-37
2022/09/02 20:17:38;;;;;;;1.23;0.50;;;21.40;90.40;;;;;;20669748;28;20041;-38
2022/09/02 20:28:09;;;;;;;1.98;0.68;;;21.20;90.60;;;;;;20656349;28;20053;-38
2022/09/02 20:38:16;;;;;;;0.95;0.35;;;21.10;90.40;;;;;;20657519;28;20336;-38
2022/09/02 20:48:36;;;;;;;1.85;0.65;;;21.00;90.70;;;;;;20650667;28;21889;-38
2022/09/02 20:59:02;;;;;;;2.10;1.27;;;20.90;90.90;;;;;;20649693;28;20557;-38
2022/09/02 21:09:32;;;;;;;1.25;0.50;;;20.70;90.50;;;;;;20647802;28;20046;-38
2022/09/02 21:19:43;;;;;;;1.20;0.40;;;20.70;90.70;;;;;;20648663;28;20811;-39
2022/09/02 21:29:48;;;;;;;1.10;0.60;;;20.50;91.00;;;;;;20649904;28;20277;-38
2022/09/02 21:39:54;;;;;;;1.98;0.60;;;20.40;91.40;;;;;;20657149;28;20026;-38
2022/09/02 21:50:20;;;;;;;0.80;0.50;;;20.30;91.40;;;;;;20640351;28;20046;-38
2022/09/02 22:00:21;;;;;;;1.17;0.50;;;20.10;91.20;;;;;;20643036;28;20161;-39
2022/09/02 22:10:27;;;;;;;2.92;0.60;;;20.10;90.90;;;;;;20649518;28;20124;-39
2022/09/02 22:20:33;;;;;;;2.05;0.70;;;19.90;91.10;;;;;;20662364;28;20041;-38
2022/09/02 22:30:37;;;;;;;1.08;0.50;;;19.80;91.40;;;;;;20650663;28;20233;-38
2022/09/02 22:40:43;;;;;;;2.00;0.60;;;19.60;91.40;;;;;;20643838;28;20066;-38
2022/09/02 23:01:25;;;;;;;3.25;0.70;;;19.30;92.00;;;;;;20633732;28;20939;-38
2022/09/02 23:11:29;;;;;;;1.15;0.50;;;19.20;92.10;;;;;;20646108;28;20406;-38
2022/09/02 23:21:53;;;;;;;1.02;0.50;;;19.10;92.50;;;;;;20627877;28;20526;-38
2022/09/02 23:32:22;;;;;;;1.02;0.43;;;18.90;92.70;;;;;;20642411;28;20096;-38
2022/09/02 23:42:24;;;;;;;0.45;0.30;;;18.80;92.50;;;;;;20632814;28;20868;-38
2022/09/02 23:52:39;;;;;;;0.82;0.52;;;18.70;93.00;;;;;;20628498;28;20092;-38
